sensor_id;sensor_type;location;lat;lon;timestamp;P1;durP1;ratioP1;P2;durP2;ratioP2
49460;SDS011;35355;49.198;-0.368;2024-02-04T00:00:44;15.15;;;3.38;;
49460;SDS011;35355;49.198;-0.368;2024-02-04T00:03:09;16.75;;;3.58;;
49460;SDS011;35355;49.198;-0.368;2024-02-04T00:05:35;14.23;;;3.58;;
49460;SDS011;35355;49.198;-0.368;2024-02-04T00:08:00;20.40;;;2.70;;
49460;SDS011;35355;49.198;-0.368;2024-02-04T00:10:27;11.10;;;3.20;;
49460;SDS011;35355;49.198;-0.368;2024-02-04T00:12:52;9.73;;;2.83;;
49460;SDS011;35355;49.198;-0.368;2024-02-04T00:15:18;13.57;;;2.55;;
49460;SDS011;35355;49.198;-0.368;2024-02-04T00:17:44;13.88;;;3.50;;
49460;SDS011;35355;49.198;-0.368;2024-02-04T00:20:09;13.23;;;3.63;;
49460;SDS011;35355;49.198;-0.368;2024-02-04T00:22:35;17.10;;;3.28;;
49460;SDS011;35355;49.198;-0.368;2024-02-04T00:25:00;14.55;;;2.90;;
49460;SDS011;35355;49.198;-0.368;2024-02-04T00:27:30;10.20;;;2.67;;
49460;SDS011;35355;49.198;-0.368;2024-02-04T00:29:58;12.20;;;3.13;;
49460;SDS011;35355;49.198;-0.368;2024-02-04T00:32:24;8.75;;;2.67;;
49460;SDS011;35355;49.198;-0.368;2024-02-04T00:34:50;11.18;;;2.58;;
49460;SDS011;35355;49.198;-0.368;2024-02-04T00:37:16;14.80;;;2.70;;
49460;SDS011;35355;49.198;-0.368;2024-02-04T00:39:41;13.75;;;3.30;;
49460;SDS011;35355;49.198;-0.368;2024-02-04T00:42:07;12.38;;;3.03;;
49460;SDS011;35355;49.198;-0.368;2024-02-04T00:44:32;8.77;;;2.60;;
49460;SDS011;35355;49.198;-0.368;2024-02-04T00:46:57;14.52;;;3.05;;
49460;SDS011;35355;49.198;-0.368;2024-02-04T00:49:23;12.73;;;2.67;;
49460;SDS011;35355;49.198;-0.368;2024-02-04T00:51:48;10.85;;;2.95;;
49460;SDS011;35355;49.198;-0.368;2024-02-04T00:54:13;8.20;;;2.38;;
49460;SDS011;35355;49.198;-0.368;2024-02-04T00:56:39;14.85;;;2.72;;
49460;SDS011;35355;49.198;-0.368;2024-02-04T00:59:04;11.32;;;2.45;;
49460;SDS011;35355;49.198;-0.368;2024-02-04T01:01:29;10.07;;;2.40;;
49460;SDS011;35355;49.198;-0.368;2024-02-04T01:03:55;5.93;;;1.80;;
49460;SDS011;35355;49.198;-0.368;2024-02-04T01:06:20;6.32;;;3.15;;
49460;SDS011;35355;49.198;-0.368;2024-02-04T01:08:45;13.35;;;3.42;;
49460;SDS011;35355;49.198;-0.368;2024-02-04T01:11:11;12.10;;;2.70;;
49460;SDS011;35355;49.198;-0.368;2024-02-04T01:13:36;14.25;;;2.42;;
49460;SDS011;35355;49.198;-0.368;2024-02-04T01:16:01;13.27;;;2.42;;
49460;SDS011;35355;49.198;-0.368;2024-02-04T01:18:27;18.05;;;2.63;;
49460;SDS011;35355;49.198;-0.368;2024-02-04T01:20:52;9.52;;;1.67;;
49460;SDS011;35355;49.198;-0.368;2024-02-04T01:23:17;12.48;;;2.22;;
49460;SDS011;35355;49.198;-0.368;2024-02-04T01:25:43;9.65;;;1.85;;
49460;SDS011;35355;49.198;-0.368;2024-02-04T01:28:09;9.70;;;1.83;;
49460;SDS011;35355;49.198;-0.368;2024-02-04T01:30:35;13.25;;;1.95;;
49460;SDS011;35355;49.198;-0.368;2024-02-04T01:33:00;7.50;;;1.75;;
49460;SDS011;35355;49.198;-0.368;2024-02-04T01:35:25;8.95;;;1.55;;
49460;SDS011;35355;49.198;-0.368;2024-02-04T01:37:51;7.05;;;1.60;;
49460;SDS011;35355;49.198;-0.368;2024-02-04T01:40:16;8.00;;;1.27;;
49460;SDS011;35355;49.198;-0.368;2024-02-04T01:42:42;11.77;;;2.55;;
49460;SDS011;35355;49.198;-0.368;2024-02-04T01:45:08;12.13;;;2.33;;
49460;SDS011;35355;49.198;-0.368;2024-02-04T01:47:34;7.88;;;1.70;;
49460;SDS011;35355;49.198;-0.368;2024-02-04T01:49:59;9.15;;;1.48;;
49460;SDS011;35355;49.198;-0.368;2024-02-04T01:52:27;5.50;;;2.22;;
49460;SDS011;35355;49.198;-0.368;2024-02-04T01:54:52;6.43;;;1.00;;
49460;SDS011;35355;49.198;-0.368;2024-02-04T01:57:18;4.35;;;0.88;;
49460;SDS011;35355;49.198;-0.368;2024-02-04T01:59:44;8.77;;;1.27;;
49460;SDS011;35355;49.198;-0.368;2024-02-04T02:02:10;5.28;;;1.13;;
49460;SDS011;35355;49.198;-0.368;2024-02-04T02:04:36;12.68;;;1.10;;
49460;SDS011;35355;49.198;-0.368;2024-02-04T02:07:01;6.07;;;0.82;;
49460;SDS011;35355;49.198;-0.368;2024-02-04T02:09:27;7.55;;;1.45;;
49460;SDS011;35355;49.198;-0.368;2024-02-04T02:11:57;6.18;;;1.15;;
49460;SDS011;35355;49.198;-0.368;2024-02-04T02:14:47;2.83;;;0.57;;
49460;SDS011;35355;49.198;-0.368;2024-02-04T02:17:20;4.55;;;0.70;;
49460;SDS011;35355;49.198;-0.368;2024-02-04T02:25:25;3.67;;;0.60;;
49460;SDS011;35355;49.198;-0.368;2024-02-04T02:27:51;3.47;;;0.73;;
49460;SDS011;35355;49.198;-0.368;2024-02-04T02:30:17;1.77;;;0.75;;
49460;SDS011;35355;49.198;-0.368;2024-02-04T02:32:46;4.97;;;0.73;;
49460;SDS011;35355;49.198;-0.368;2024-02-04T02:35:17;6.68;;;0.68;;
49460;SDS011;35355;49.198;-0.368;2024-02-04T02:37:44;4.75;;;0.70;;
49460;SDS011;35355;49.198;-0.368;2024-02-04T02:40:21;5.65;;;0.52;;
49460;SDS011;35355;49.198;-0.368;2024-02-04T02:42:52;4.03;;;0.52;;
49460;SDS011;35355;49.198;-0.368;2024-02-04T02:45:21;2.58;;;0.30;;
49460;SDS011;35355;49.198;-0.368;2024-02-04T02:47:47;3.63;;;0.80;;
49460;SDS011;35355;49.198;-0.368;2024-02-04T02:50:14;5.40;;;0.70;;
49460;SDS011;35355;49.198;-0.368;2024-02-04T02:52:39;2.10;;;0.25;;
49460;SDS011;35355;49.198;-0.368;2024-02-04T02:55:05;3.20;;;0.63;;
49460;SDS011;35355;49.198;-0.368;2024-02-04T02:57:30;1.35;;;0.43;;
49460;SDS011;35355;49.198;-0.368;2024-02-04T02:59:56;4.35;;;0.32;;
49460;SDS011;35355;49.198;-0.368;2024-02-04T03:02:21;2.97;;;0.70;;
49460;SDS011;35355;49.198;-0.368;2024-02-04T03:04:46;5.10;;;1.00;;
49460;SDS011;35355;49.198;-0.368;2024-02-04T03:07:12;1.85;;;0.47;;
49460;SDS011;35355;49.198;-0.368;2024-02-04T03:09:37;6.97;;;0.68;;
49460;SDS011;35355;49.198;-0.368;2024-02-04T03:12:02;3.88;;;0.88;;
49460;SDS011;35355;49.198;-0.368;2024-02-04T03:14:28;7.15;;;0.70;;
49460;SDS011;35355;49.198;-0.368;2024-02-04T03:16:53;7.55;;;0.90;;
49460;SDS011;35355;49.198;-0.368;2024-02-04T03:19:19;3.75;;;0.95;;
49460;SDS011;35355;49.198;-0.368;2024-02-04T03:21:44;3.65;;;0.85;;
49460;SDS011;35355;49.198;-0.368;2024-02-04T03:24:09;3.47;;;1.15;;
49460;SDS011;35355;49.198;-0.368;2024-02-04T03:26:34;5.82;;;1.05;;
49460;SDS011;35355;49.198;-0.368;2024-02-04T03:29:00;3.55;;;0.80;;
49460;SDS011;35355;49.198;-0.368;2024-02-04T03:31:25;5.13;;;0.90;;
49460;SDS011;35355;49.198;-0.368;2024-02-04T03:33:51;4.53;;;0.90;;
49460;SDS011;35355;49.198;-0.368;2024-02-04T03:36:18;3.22;;;0.90;;
49460;SDS011;35355;49.198;-0.368;2024-02-04T03:38:44;7.72;;;2.45;;
49460;SDS011;35355;49.198;-0.368;2024-02-04T03:41:10;5.10;;;1.52;;
49460;SDS011;35355;49.198;-0.368;2024-02-04T03:43:38;2.85;;;1.08;;
49460;SDS011;35355;49.198;-0.368;2024-02-04T03:46:03;6.72;;;1.10;;
49460;SDS011;35355;49.198;-0.368;2024-02-04T03:48:29;5.93;;;1.38;;
49460;SDS011;35355;49.198;-0.368;2024-02-04T03:50:54;3.92;;;1.40;;
49460;SDS011;35355;49.198;-0.368;2024-02-04T03:53:20;3.17;;;1.27;;
49460;SDS011;35355;49.198;-0.368;2024-02-04T03:55:47;4.60;;;1.42;;
49460;SDS011;35355;49.198;-0.368;2024-02-04T03:58:13;6.00;;;1.52;;
49460;SDS011;35355;49.198;-0.368;2024-02-04T04:00:39;6.75;;;2.30;;
49460;SDS011;35355;49.198;-0.368;2024-02-04T04:03:05;7.03;;;1.58;;
49460;SDS011;35355;49.198;-0.368;2024-02-04T04:05:30;3.85;;;1.10;;
49460;SDS011;35355;49.198;-0.368;2024-02-04T04:07:55;4.55;;;1.27;;
49460;SDS011;35355;49.198;-0.368;2024-02-04T04:10:21;6.00;;;1.88;;
49460;SDS011;35355;49.198;-0.368;2024-02-04T04:12:46;4.32;;;1.42;;
49460;SDS011;35355;49.198;-0.368;2024-02-04T04:15:11;8.80;;;1.58;;
49460;SDS011;35355;49.198;-0.368;2024-02-04T04:17:37;7.00;;;1.08;;
49460;SDS011;35355;49.198;-0.368;2024-02-04T04:20:03;4.13;;;1.20;;
49460;SDS011;35355;49.198;-0.368;2024-02-04T04:22:29;3.38;;;1.00;;
49460;SDS011;35355;49.198;-0.368;2024-02-04T04:24:55;3.92;;;1.10;;
49460;SDS011;35355;49.198;-0.368;2024-02-04T04:27:20;3.55;;;1.05;;
49460;SDS011;35355;49.198;-0.368;2024-02-04T04:29:45;5.10;;;1.10;;
49460;SDS011;35355;49.198;-0.368;2024-02-04T04:32:11;3.88;;;1.10;;
49460;SDS011;35355;49.198;-0.368;2024-02-04T04:34:36;4.15;;;1.05;;
49460;SDS011;35355;49.198;-0.368;2024-02-04T04:37:01;4.53;;;1.52;;
49460;SDS011;35355;49.198;-0.368;2024-02-04T04:39:27;4.78;;;1.42;;
49460;SDS011;35355;49.198;-0.368;2024-02-04T04:41:52;4.85;;;1.10;;
49460;SDS011;35355;49.198;-0.368;2024-02-04T04:44:17;1.67;;;0.90;;
49460;SDS011;35355;49.198;-0.368;2024-02-04T04:46:42;2.33;;;0.80;;
49460;SDS011;35355;49.198;-0.368;2024-02-04T04:49:09;4.88;;;1.33;;
49460;SDS011;35355;49.198;-0.368;2024-02-04T04:51:34;3.88;;;1.40;;
49460;SDS011;35355;49.198;-0.368;2024-02-04T04:54:00;6.00;;;1.77;;
49460;SDS011;35355;49.198;-0.368;2024-02-04T04:56:25;4.10;;;1.40;;
49460;SDS011;35355;49.198;-0.368;2024-02-04T04:58:50;9.63;;;2.53;;
49460;SDS011;35355;49.198;-0.368;2024-02-04T05:01:16;15.40;;;1.85;;
49460;SDS011;35355;49.198;-0.368;2024-02-04T05:03:41;5.40;;;1.48;;
49460;SDS011;35355;49.198;-0.368;2024-02-04T05:06:07;4.03;;;1.23;;
49460;SDS011;35355;49.198;-0.368;2024-02-04T05:08:32;8.00;;;1.52;;
49460;SDS011;35355;49.198;-0.368;2024-02-04T05:10:58;5.18;;;1.20;;
49460;SDS011;35355;49.198;-0.368;2024-02-04T05:13:23;3.15;;;1.13;;
49460;SDS011;35355;49.198;-0.368;2024-02-04T05:15:48;6.05;;;0.85;;
49460;SDS011;35355;49.198;-0.368;2024-02-04T05:18:14;2.92;;;1.30;;
49460;SDS011;35355;49.198;-0.368;2024-02-04T05:20:39;3.17;;;1.02;;
49460;SDS011;35355;49.198;-0.368;2024-02-04T05:23:04;2.67;;;1.00;;
49460;SDS011;35355;49.198;-0.368;2024-02-04T05:25:30;3.85;;;1.45;;
49460;SDS011;35355;49.198;-0.368;2024-02-04T05:27:56;3.45;;;1.13;;
49460;SDS011;35355;49.198;-0.368;2024-02-04T05:30:21;2.22;;;0.50;;
49460;SDS011;35355;49.198;-0.368;2024-02-04T05:32:47;3.63;;;1.02;;
49460;SDS011;35355;49.198;-0.368;2024-02-04T05:35:12;4.57;;;0.75;;
49460;SDS011;35355;49.198;-0.368;2024-02-04T05:37:37;4.22;;;0.65;;
49460;SDS011;35355;49.198;-0.368;2024-02-04T05:40:03;3.50;;;0.70;;
49460;SDS011;35355;49.198;-0.368;2024-02-04T05:42:29;2.72;;;0.80;;
49460;SDS011;35355;49.198;-0.368;2024-02-04T05:44:56;4.68;;;1.23;;
49460;SDS011;35355;49.198;-0.368;2024-02-04T05:47:22;1.83;;;0.38;;
49460;SDS011;35355;49.198;-0.368;2024-02-04T05:49:47;4.53;;;0.82;;
49460;SDS011;35355;49.198;-0.368;2024-02-04T05:52:14;4.65;;;0.60;;
49460;SDS011;35355;49.198;-0.368;2024-02-04T05:54:39;2.78;;;0.50;;
49460;SDS011;35355;49.198;-0.368;2024-02-04T05:57:05;4.80;;;0.43;;
49460;SDS011;35355;49.198;-0.368;2024-02-04T05:59:30;3.60;;;0.88;;
49460;SDS011;35355;49.198;-0.368;2024-02-04T06:01:56;2.47;;;0.60;;
49460;SDS011;35355;49.198;-0.368;2024-02-04T06:04:21;4.45;;;0.52;;
49460;SDS011;35355;49.198;-0.368;2024-02-04T06:06:47;6.35;;;0.88;;
49460;SDS011;35355;49.198;-0.368;2024-02-04T06:09:12;3.00;;;0.93;;
49460;SDS011;35355;49.198;-0.368;2024-02-04T06:11:37;4.05;;;1.10;;
49460;SDS011;35355;49.198;-0.368;2024-02-04T06:14:03;4.75;;;0.90;;
49460;SDS011;35355;49.198;-0.368;2024-02-04T06:16:28;7.57;;;0.80;;
49460;SDS011;35355;49.198;-0.368;2024-02-04T06:18:53;3.65;;;0.82;;
49460;SDS011;35355;49.198;-0.368;2024-02-04T06:21:22;2.60;;;0.75;;
49460;SDS011;35355;49.198;-0.368;2024-02-04T06:23:47;3.78;;;0.63;;
49460;SDS011;35355;49.198;-0.368;2024-02-04T06:26:12;2.30;;;0.60;;
49460;SDS011;35355;49.198;-0.368;2024-02-04T06:28:38;3.70;;;1.20;;
49460;SDS011;35355;49.198;-0.368;2024-02-04T06:31:03;2.05;;;0.40;;
49460;SDS011;35355;49.198;-0.368;2024-02-04T06:33:29;4.47;;;0.93;;
49460;SDS011;35355;49.198;-0.368;2024-02-04T06:35:54;5.97;;;0.98;;
49460;SDS011;35355;49.198;-0.368;2024-02-04T06:38:19;2.28;;;1.00;;
49460;SDS011;35355;49.198;-0.368;2024-02-04T06:40:45;2.15;;;0.57;;
49460;SDS011;35355;49.198;-0.368;2024-02-04T06:43:10;3.28;;;0.93;;
49460;SDS011;35355;49.198;-0.368;2024-02-04T06:45:35;6.28;;;1.38;;
49460;SDS011;35355;49.198;-0.368;2024-02-04T06:48:01;3.60;;;0.80;;
49460;SDS011;35355;49.198;-0.368;2024-02-04T06:50:26;5.97;;;0.75;;
49460;SDS011;35355;49.198;-0.368;2024-02-04T06:52:51;4.78;;;1.10;;
49460;SDS011;35355;49.198;-0.368;2024-02-04T06:55:17;10.15;;;1.10;;
49460;SDS011;35355;49.198;-0.368;2024-02-04T06:57:42;5.32;;;1.33;;
49460;SDS011;35355;49.198;-0.368;2024-02-04T07:00:08;5.03;;;1.38;;
49460;SDS011;35355;49.198;-0.368;2024-02-04T07:02:34;6.72;;;0.82;;
49460;SDS011;35355;49.198;-0.368;2024-02-04T07:05:00;6.90;;;1.40;;
49460;SDS011;35355;49.198;-0.368;2024-02-04T07:07:25;5.38;;;1.20;;
49460;SDS011;35355;49.198;-0.368;2024-02-04T07:09:50;6.00;;;0.93;;
49460;SDS011;35355;49.198;-0.368;2024-02-04T07:12:16;4.50;;;1.00;;
49460;SDS011;35355;49.198;-0.368;2024-02-04T07:14:41;9.15;;;1.20;;
49460;SDS011;35355;49.198;-0.368;2024-02-04T07:17:06;19.17;;;2.45;;
49460;SDS011;35355;49.198;-0.368;2024-02-04T07:19:32;5.80;;;1.48;;
49460;SDS011;35355;49.198;-0.368;2024-02-04T07:21:57;11.88;;;1.52;;
49460;SDS011;35355;49.198;-0.368;2024-02-04T07:24:22;5.25;;;1.40;;
49460;SDS011;35355;49.198;-0.368;2024-02-04T07:26:48;14.55;;;1.52;;
49460;SDS011;35355;49.198;-0.368;2024-02-04T07:29:13;9.95;;;1.65;;
49460;SDS011;35355;49.198;-0.368;2024-02-04T07:31:38;5.18;;;1.60;;
49460;SDS011;35355;49.198;-0.368;2024-02-04T07:34:04;10.50;;;1.55;;
49460;SDS011;35355;49.198;-0.368;2024-02-04T07:36:30;12.20;;;1.88;;
49460;SDS011;35355;49.198;-0.368;2024-02-04T07:38:55;14.10;;;2.25;;
49460;SDS011;35355;49.198;-0.368;2024-02-04T07:41:21;12.98;;;1.55;;
49460;SDS011;35355;49.198;-0.368;2024-02-04T07:43:46;17.15;;;2.83;;
49460;SDS011;35355;49.198;-0.368;2024-02-04T07:46:13;17.05;;;2.25;;
49460;SDS011;35355;49.198;-0.368;2024-02-04T07:48:38;9.70;;;1.60;;
49460;SDS011;35355;49.198;-0.368;2024-02-04T07:51:04;12.15;;;2.15;;
49460;SDS011;35355;49.198;-0.368;2024-02-04T07:53:29;12.05;;;3.53;;
49460;SDS011;35355;49.198;-0.368;2024-02-04T07:55:54;10.32;;;1.65;;
49460;SDS011;35355;49.198;-0.368;2024-02-04T07:58:21;8.00;;;1.52;;
49460;SDS011;35355;49.198;-0.368;2024-02-04T08:00:46;14.02;;;2.13;;
49460;SDS011;35355;49.198;-0.368;2024-02-04T08:03:12;25.67;;;2.22;;
49460;SDS011;35355;49.198;-0.368;2024-02-04T08:05:37;13.65;;;3.65;;
49460;SDS011;35355;49.198;-0.368;2024-02-04T08:08:03;11.20;;;1.70;;
49460;SDS011;35355;49.198;-0.368;2024-02-04T08:10:28;14.68;;;2.20;;
49460;SDS011;35355;49.198;-0.368;2024-02-04T08:12:54;11.43;;;1.83;;
49460;SDS011;35355;49.198;-0.368;2024-02-04T08:15:20;7.45;;;1.60;;
49460;SDS011;35355;49.198;-0.368;2024-02-04T08:17:45;7.43;;;1.55;;
49460;SDS011;35355;49.198;-0.368;2024-02-04T08:20:11;10.10;;;2.10;;
49460;SDS011;35355;49.198;-0.368;2024-02-04T08:22:37;9.07;;;1.90;;
49460;SDS011;35355;49.198;-0.368;2024-02-04T08:25:04;12.52;;;1.20;;
49460;SDS011;35355;49.198;-0.368;2024-02-04T08:27:30;9.38;;;1.08;;
49460;SDS011;35355;49.198;-0.368;2024-02-04T08:29:56;6.60;;;1.40;;
49460;SDS011;35355;49.198;-0.368;2024-02-04T08:32:21;5.25;;;0.85;;
49460;SDS011;35355;49.198;-0.368;2024-02-04T08:34:46;12.77;;;1.63;;
49460;SDS011;35355;49.198;-0.368;2024-02-04T08:37:12;8.10;;;1.52;;
49460;SDS011;35355;49.198;-0.368;2024-02-04T08:39:37;15.35;;;1.70;;
49460;SDS011;35355;49.198;-0.368;2024-02-04T08:42:02;11.38;;;1.63;;
49460;SDS011;35355;49.198;-0.368;2024-02-04T08:44:28;6.95;;;1.17;;
49460;SDS011;35355;49.198;-0.368;2024-02-04T08:46:53;13.20;;;1.10;;
49460;SDS011;35355;49.198;-0.368;2024-02-04T08:49:20;6.90;;;1.05;;
49460;SDS011;35355;49.198;-0.368;2024-02-04T08:51:46;8.35;;;1.30;;
49460;SDS011;35355;49.198;-0.368;2024-02-04T08:54:11;12.30;;;2.17;;
49460;SDS011;35355;49.198;-0.368;2024-02-04T08:56:37;5.22;;;1.42;;
49460;SDS011;35355;49.198;-0.368;2024-02-04T08:59:02;8.20;;;2.03;;
49460;SDS011;35355;49.198;-0.368;2024-02-04T09:01:27;8.85;;;1.58;;
49460;SDS011;35355;49.198;-0.368;2024-02-04T09:03:53;7.55;;;1.38;;
49460;SDS011;35355;49.198;-0.368;2024-02-04T09:06:18;12.95;;;1.33;;
49460;SDS011;35355;49.198;-0.368;2024-02-04T09:08:44;9.55;;;1.92;;
49460;SDS011;35355;49.198;-0.368;2024-02-04T09:11:09;9.50;;;1.30;;
49460;SDS011;35355;49.198;-0.368;2024-02-04T09:13:34;8.02;;;2.10;;
49460;SDS011;35355;49.198;-0.368;2024-02-04T09:16:00;4.85;;;1.30;;
49460;SDS011;35355;49.198;-0.368;2024-02-04T09:18:25;6.07;;;1.70;;
49460;SDS011;35355;49.198;-0.368;2024-02-04T09:20:50;5.75;;;1.42;;
49460;SDS011;35355;49.198;-0.368;2024-02-04T09:23:16;4.88;;;1.13;;
49460;SDS011;35355;49.198;-0.368;2024-02-04T09:25:41;5.25;;;1.35;;
49460;SDS011;35355;49.198;-0.368;2024-02-04T09:28:06;3.95;;;0.85;;
49460;SDS011;35355;49.198;-0.368;2024-02-04T09:30:32;4.80;;;0.88;;
49460;SDS011;35355;49.198;-0.368;2024-02-04T09:32:57;5.25;;;0.60;;
49460;SDS011;35355;49.198;-0.368;2024-02-04T09:35:22;3.47;;;0.60;;
49460;SDS011;35355;49.198;-0.368;2024-02-04T09:37:48;3.05;;;0.82;;
49460;SDS011;35355;49.198;-0.368;2024-02-04T09:40:13;5.35;;;1.05;;
49460;SDS011;35355;49.198;-0.368;2024-02-04T09:42:39;4.15;;;0.98;;
49460;SDS011;35355;49.198;-0.368;2024-02-04T09:45:05;5.05;;;0.88;;
49460;SDS011;35355;49.198;-0.368;2024-02-04T09:47:31;7.15;;;1.10;;
49460;SDS011;35355;49.198;-0.368;2024-02-04T09:49:59;3.58;;;0.77;;
49460;SDS011;35355;49.198;-0.368;2024-02-04T09:52:28;3.88;;;1.33;;
49460;SDS011;35355;49.198;-0.368;2024-02-04T09:55:00;4.32;;;0.60;;
49460;SDS011;35355;49.198;-0.368;2024-02-04T09:57:31;1.75;;;0.77;;
49460;SDS011;35355;49.198;-0.368;2024-02-04T09:59:59;8.57;;;0.68;;
49460;SDS011;35355;49.198;-0.368;2024-02-04T10:02:24;3.97;;;0.63;;
49460;SDS011;35355;49.198;-0.368;2024-02-04T10:04:50;7.53;;;0.88;;
49460;SDS011;35355;49.198;-0.368;2024-02-04T10:07:16;3.78;;;0.95;;
49460;SDS011;35355;49.198;-0.368;2024-02-04T10:09:43;1.80;;;0.85;;
49460;SDS011;35355;49.198;-0.368;2024-02-04T10:12:09;4.93;;;0.57;;
49460;SDS011;35355;49.198;-0.368;2024-02-04T10:14:34;3.30;;;1.02;;
49460;SDS011;35355;49.198;-0.368;2024-02-04T10:17:00;3.70;;;1.02;;
49460;SDS011;35355;49.198;-0.368;2024-02-04T10:19:25;7.30;;;0.95;;
49460;SDS011;35355;49.198;-0.368;2024-02-04T10:21:57;5.35;;;0.60;;
49460;SDS011;35355;49.198;-0.368;2024-02-04T10:24:27;2.63;;;0.75;;
49460;SDS011;35355;49.198;-0.368;2024-02-04T10:26:53;2.58;;;0.52;;
49460;SDS011;35355;49.198;-0.368;2024-02-04T10:29:22;7.50;;;0.73;;
49460;SDS011;35355;49.198;-0.368;2024-02-04T10:31:48;4.47;;;0.82;;
49460;SDS011;35355;49.198;-0.368;2024-02-04T10:34:14;3.85;;;0.60;;
49460;SDS011;35355;49.198;-0.368;2024-02-04T10:36:39;5.32;;;0.63;;
49460;SDS011;35355;49.198;-0.368;2024-02-04T10:39:04;6.07;;;1.02;;
49460;SDS011;35355;49.198;-0.368;2024-02-04T10:41:31;4.13;;;0.88;;
49460;SDS011;35355;49.198;-0.368;2024-02-04T10:43:59;5.40;;;0.80;;
49460;SDS011;35355;49.198;-0.368;2024-02-04T10:46:29;7.50;;;1.00;;
49460;SDS011;35355;49.198;-0.368;2024-02-04T10:48:56;2.83;;;0.68;;
49460;SDS011;35355;49.198;-0.368;2024-02-04T10:51:24;4.25;;;0.70;;
49460;SDS011;35355;49.198;-0.368;2024-02-04T10:53:51;6.03;;;0.75;;
49460;SDS011;35355;49.198;-0.368;2024-02-04T10:56:21;4.97;;;1.02;;
49460;SDS011;35355;49.198;-0.368;2024-02-04T10:58:50;5.65;;;0.85;;
49460;SDS011;35355;49.198;-0.368;2024-02-04T11:01:17;8.55;;;0.88;;
49460;SDS011;35355;49.198;-0.368;2024-02-04T11:03:43;6.90;;;0.82;;
49460;SDS011;35355;49.198;-0.368;2024-02-04T11:06:10;6.05;;;1.45;;
49460;SDS011;35355;49.198;-0.368;2024-02-04T11:08:40;9.00;;;1.40;;
49460;SDS011;35355;49.198;-0.368;2024-02-04T11:11:06;5.68;;;1.17;;
49460;SDS011;35355;49.198;-0.368;2024-02-04T11:13:31;6.47;;;1.25;;
49460;SDS011;35355;49.198;-0.368;2024-02-04T11:15:58;6.47;;;1.30;;
49460;SDS011;35355;49.198;-0.368;2024-02-04T11:21:30;5.97;;;2.60;;
49460;SDS011;35355;49.198;-0.368;2024-02-04T11:26:49;3.63;;;1.30;;
49460;SDS011;35355;49.198;-0.368;2024-02-04T11:29:14;4.47;;;1.20;;
49460;SDS011;35355;49.198;-0.368;2024-02-04T11:31:41;8.48;;;1.85;;
49460;SDS011;35355;49.198;-0.368;2024-02-04T11:34:06;9.38;;;1.45;;
49460;SDS011;35355;49.198;-0.368;2024-02-04T11:36:37;8.63;;;2.15;;
49460;SDS011;35355;49.198;-0.368;2024-02-04T11:39:10;11.18;;;1.80;;
49460;SDS011;35355;49.198;-0.368;2024-02-04T11:41:46;6.90;;;1.65;;
49460;SDS011;35355;49.198;-0.368;2024-02-04T11:44:12;11.63;;;2.90;;
49460;SDS011;35355;49.198;-0.368;2024-02-04T11:46:47;9.57;;;2.58;;
49460;SDS011;35355;49.198;-0.368;2024-02-04T11:49:17;7.05;;;1.75;;
49460;SDS011;35355;49.198;-0.368;2024-02-04T11:51:46;15.68;;;1.92;;
49460;SDS011;35355;49.198;-0.368;2024-02-04T11:54:15;9.10;;;1.80;;
49460;SDS011;35355;49.198;-0.368;2024-02-04T11:56:41;9.95;;;2.35;;
49460;SDS011;35355;49.198;-0.368;2024-02-04T11:59:08;10.73;;;1.95;;
49460;SDS011;35355;49.198;-0.368;2024-02-04T12:01:34;12.40;;;2.00;;
49460;SDS011;35355;49.198;-0.368;2024-02-04T12:04:18;11.20;;;3.00;;
49460;SDS011;35355;49.198;-0.368;2024-02-04T12:06:45;12.27;;;1.70;;
49460;SDS011;35355;49.198;-0.368;2024-02-04T12:09:12;9.07;;;2.72;;
49460;SDS011;35355;49.198;-0.368;2024-02-04T12:11:38;8.38;;;2.30;;
49460;SDS011;35355;49.198;-0.368;2024-02-04T12:14:04;12.77;;;2.42;;
49460;SDS011;35355;49.198;-0.368;2024-02-04T12:16:31;10.15;;;2.10;;
49460;SDS011;35355;49.198;-0.368;2024-02-04T12:18:57;22.63;;;3.17;;
49460;SDS011;35355;49.198;-0.368;2024-02-04T12:21:24;6.18;;;2.17;;
49460;SDS011;35355;49.198;-0.368;2024-02-04T12:23:50;16.90;;;2.75;;
49460;SDS011;35355;49.198;-0.368;2024-02-04T12:26:16;9.52;;;2.08;;
49460;SDS011;35355;49.198;-0.368;2024-02-04T12:28:42;10.95;;;3.28;;
49460;SDS011;35355;49.198;-0.368;2024-02-04T12:31:07;10.80;;;2.90;;
49460;SDS011;35355;49.198;-0.368;2024-02-04T12:33:40;14.88;;;2.30;;
49460;SDS011;35355;49.198;-0.368;2024-02-04T12:36:06;17.63;;;2.40;;
49460;SDS011;35355;49.198;-0.368;2024-02-04T12:38:32;10.25;;;2.70;;
49460;SDS011;35355;49.198;-0.368;2024-02-04T12:41:01;15.43;;;3.17;;
49460;SDS011;35355;49.198;-0.368;2024-02-04T12:43:27;13.02;;;3.20;;
49460;SDS011;35355;49.198;-0.368;2024-02-04T12:45:55;9.93;;;2.50;;
49460;SDS011;35355;49.198;-0.368;2024-02-04T12:48:21;11.00;;;2.90;;
49460;SDS011;35355;49.198;-0.368;2024-02-04T12:50:48;17.65;;;2.60;;
49460;SDS011;35355;49.198;-0.368;2024-02-04T12:53:13;7.32;;;2.38;;
49460;SDS011;35355;49.198;-0.368;2024-02-04T12:55:40;12.25;;;2.33;;
49460;SDS011;35355;49.198;-0.368;2024-02-04T12:58:08;19.08;;;2.78;;
49460;SDS011;35355;49.198;-0.368;2024-02-04T13:00:37;12.00;;;3.40;;
49460;SDS011;35355;49.198;-0.368;2024-02-04T13:03:03;15.10;;;2.50;;
49460;SDS011;35355;49.198;-0.368;2024-02-04T13:05:30;13.63;;;2.05;;
49460;SDS011;35355;49.198;-0.368;2024-02-04T13:07:57;17.73;;;3.65;;
49460;SDS011;35355;49.198;-0.368;2024-02-04T13:10:26;14.00;;;2.65;;
49460;SDS011;35355;49.198;-0.368;2024-02-04T13:15:26;11.77;;;2.38;;
49460;SDS011;35355;49.198;-0.368;2024-02-04T13:17:52;14.30;;;2.28;;
49460;SDS011;35355;49.198;-0.368;2024-02-04T13:20:17;10.80;;;3.00;;
49460;SDS011;35355;49.198;-0.368;2024-02-04T13:22:42;12.02;;;2.38;;
49460;SDS011;35355;49.198;-0.368;2024-02-04T13:25:09;20.33;;;2.58;;
49460;SDS011;35355;49.198;-0.368;2024-02-04T13:27:35;11.50;;;2.72;;
49460;SDS011;35355;49.198;-0.368;2024-02-04T13:30:00;9.23;;;2.40;;
49460;SDS011;35355;49.198;-0.368;2024-02-04T13:32:25;13.00;;;2.60;;
49460;SDS011;35355;49.198;-0.368;2024-02-04T13:34:50;10.32;;;2.97;;
49460;SDS011;35355;49.198;-0.368;2024-02-04T13:37:16;9.68;;;2.50;;
49460;SDS011;35355;49.198;-0.368;2024-02-04T13:39:42;12.02;;;2.03;;
49460;SDS011;35355;49.198;-0.368;2024-02-04T13:42:08;13.18;;;3.15;;
49460;SDS011;35355;49.198;-0.368;2024-02-04T13:44:34;12.20;;;2.45;;
49460;SDS011;35355;49.198;-0.368;2024-02-04T13:46:59;23.63;;;3.28;;
49460;SDS011;35355;49.198;-0.368;2024-02-04T13:49:25;15.43;;;1.70;;
49460;SDS011;35355;49.198;-0.368;2024-02-04T13:51:50;11.43;;;2.20;;
49460;SDS011;35355;49.198;-0.368;2024-02-04T13:54:15;27.58;;;4.25;;
49460;SDS011;35355;49.198;-0.368;2024-02-04T13:56:40;14.98;;;2.33;;
49460;SDS011;35355;49.198;-0.368;2024-02-04T13:59:06;13.98;;;2.88;;
49460;SDS011;35355;49.198;-0.368;2024-02-04T14:01:32;11.50;;;2.88;;
49460;SDS011;35355;49.198;-0.368;2024-02-04T14:03:57;19.00;;;2.20;;
49460;SDS011;35355;49.198;-0.368;2024-02-04T14:06:22;13.07;;;2.42;;
49460;SDS011;35355;49.198;-0.368;2024-02-04T14:08:48;18.67;;;2.20;;
49460;SDS011;35355;49.198;-0.368;2024-02-04T14:11:13;16.17;;;1.92;;
49460;SDS011;35355;49.198;-0.368;2024-02-04T14:13:39;16.70;;;3.95;;
49460;SDS011;35355;49.198;-0.368;2024-02-04T14:16:04;11.57;;;2.25;;
49460;SDS011;35355;49.198;-0.368;2024-02-04T14:18:31;10.98;;;1.73;;
49460;SDS011;35355;49.198;-0.368;2024-02-04T14:20:56;16.42;;;2.97;;
49460;SDS011;35355;49.198;-0.368;2024-02-04T14:23:21;15.13;;;2.10;;
49460;SDS011;35355;49.198;-0.368;2024-02-04T14:25:47;18.33;;;2.35;;
49460;SDS011;35355;49.198;-0.368;2024-02-04T14:28:12;10.15;;;2.00;;
49460;SDS011;35355;49.198;-0.368;2024-02-04T14:30:37;14.68;;;2.40;;
49460;SDS011;35355;49.198;-0.368;2024-02-04T14:33:03;13.88;;;2.03;;
49460;SDS011;35355;49.198;-0.368;2024-02-04T14:35:29;9.77;;;2.70;;
49460;SDS011;35355;49.198;-0.368;2024-02-04T14:37:54;10.80;;;2.70;;